Oosterschelde — PGNP — position and weather

sailwx.info

Track history (hours):
 
Tides and Currents Weather Stations Pressure Air Temp Water Temp Dewpoint Dewpoint Depression Visibility Wind Speed Wind Dir Waves Ship Positions

Oosterschelde (Netherlands)

Ship's website: http://www.oosterschelde.nl/indexuk.htm

Last reported at 2020-Aug-08 17:30 UTC. Time now 2020-Aug-13 10:42 UTC.
Position N 51°55' E 004°29'.

Length 49 m; draft 2.9 m.

Type: Sailing vessel. MMSI: 246010985.

Date/timePositionNaut miles runAvg speedWind from/ knotsBaromVisibWave heightAir tempDewpointWater temp
2020-Aug-08 17:30N 51°55' E 004°29'4 1.4
2020-Aug-08 14:30N 51°54' E 004°22'9 5.7
2020-Aug-08 13:00N 51°57' E 004°10'6 3.8
2020-Aug-08 11:31N 52°03' E 004°07'5 9.2
2020-Aug-08 11:00N 52°06' E 004°13'9 6.2
2020-Aug-08 09:30N 52°14' E 004°20'4 8.1
2020-Aug-08 09:00N 52°17' E 004°24'7 7.4
2020-Aug-08 08:00N 52°24' E 004°28'6 2.0
2020-Aug-08 04:59N 52°28' E 004°36'0 0.0
2020-Aug-08 03:59N 52°28' E 004°36'0 0.0
2020-Aug-08 03:29N 52°28' E 004°36'0 0.0
2020-Aug-08 02:59N 52°28' E 004°36'0 0.0
2020-Aug-08 00:59N 52°28' E 004°36'0 0.0
2020-Aug-07 23:59N 52°28' E 004°36'0 0.0
2020-Aug-07 21:59N 52°28' E 004°36'0 0.0
2020-Aug-07 19:29N 52°28' E 004°36'0 0.0
2020-Aug-07 17:29N 52°28' E 004°36'0 0.0
2020-Aug-07 16:29N 52°28' E 004°36'7 3.0
2020-Aug-07 14:00N 52°26' E 004°47'6 5.6
2020-Aug-07 13:00N 52°23' E 004°55'0 0.0
2020-Aug-07 12:30N 52°23' E 004°55'9 4.5
2020-Aug-07 10:30N 52°27' E 004°42'3 6.5
2020-Aug-07 10:00N 52°28' E 004°37'1 0.3
2020-Aug-07 06:28N 52°28' E 004°35'0 0.0
2020-Aug-07 04:58N 52°28' E 004°35'0 0.0
2020-Aug-07 04:28N 52°28' E 004°35'0 0.0
2020-Aug-07 03:58N 52°28' E 004°35'0 0.0
2020-Aug-07 03:28N 52°28' E 004°35'0 0.0
2020-Aug-07 00:58N 52°28' E 004°35'0 0.0
2020-Aug-06 23:28N 52°28' E 004°35'0 0.0
2020-Aug-06 21:28N 52°28' E 004°35'0 0.0
2020-Aug-06 19:58N 52°28' E 004°35'9 2.2
2020-Aug-06 16:00N 52°21' E 004°27'20 8.1
2020-Aug-06 13:30N 52°04' E 004°08'  
Track history (hours):
 
Tides and Currents Weather Stations Pressure Air Temp Water Temp Dewpoint Dewpoint Depression Visibility Wind Speed Wind Dir Waves Ship Positions

Oosterschelde (Netherlands)

Ship's website: http://www.oosterschelde.nl/indexuk.htm

Last reported at 2020-Aug-08 17:30 UTC. Time now 2020-Aug-13 10:42 UTC.
Position N 51°55' E 004°29'.

Length 49 m; draft 2.9 m.

Type: Sailing vessel. MMSI: 246010985.

Date/timePositionNaut miles runAvg speedWind from/ knotsBaromVisibWave heightAir tempDewpointWater temp
2020-Aug-08 17:30N 51°55' E 004°29'4 1.4
2020-Aug-08 14:30N 51°54' E 004°22'9 5.7
2020-Aug-08 13:00N 51°57' E 004°10'6 3.8
2020-Aug-08 11:31N 52°03' E 004°07'5 9.2
2020-Aug-08 11:00N 52°06' E 004°13'9 6.2
2020-Aug-08 09:30N 52°14' E 004°20'4 8.1
2020-Aug-08 09:00N 52°17' E 004°24'7 7.4
2020-Aug-08 08:00N 52°24' E 004°28'6 2.0
2020-Aug-08 04:59N 52°28' E 004°36'0 0.0
2020-Aug-08 03:59N 52°28' E 004°36'0 0.0
2020-Aug-08 03:29N 52°28' E 004°36'0 0.0
2020-Aug-08 02:59N 52°28' E 004°36'0 0.0
2020-Aug-08 00:59N 52°28' E 004°36'0 0.0
2020-Aug-07 23:59N 52°28' E 004°36'0 0.0
2020-Aug-07 21:59N 52°28' E 004°36'0 0.0
2020-Aug-07 19:29N 52°28' E 004°36'0 0.0
2020-Aug-07 17:29N 52°28' E 004°36'0 0.0
2020-Aug-07 16:29N 52°28' E 004°36'7 3.0
2020-Aug-07 14:00N 52°26' E 004°47'6 5.6
2020-Aug-07 13:00N 52°23' E 004°55'0 0.0
2020-Aug-07 12:30N 52°23' E 004°55'9 4.5
2020-Aug-07 10:30N 52°27' E 004°42'3 6.5
2020-Aug-07 10:00N 52°28' E 004°37'1 0.3
2020-Aug-07 06:28N 52°28' E 004°35'0 0.0
2020-Aug-07 04:58N 52°28' E 004°35'0 0.0
2020-Aug-07 04:28N 52°28' E 004°35'0 0.0
2020-Aug-07 03:58N 52°28' E 004°35'0 0.0
2020-Aug-07 03:28N 52°28' E 004°35'0 0.0
2020-Aug-07 00:58N 52°28' E 004°35'0 0.0
2020-Aug-06 23:28N 52°28' E 004°35'0 0.0
2020-Aug-06 21:28N 52°28' E 004°35'0 0.0
2020-Aug-06 19:58N 52°28' E 004°35'9 2.2
2020-Aug-06 16:00N 52°21' E 004°27'20 8.1
2020-Aug-06 13:30N 52°04' E 004°08'  

Dump ship's entire track history